sensor_id;sensor_type;location;lat;lon;timestamp;pressure;altitude;pressure_sealevel;temperature;humidity
39141;BME280;24875;48.436;10.298;2023-08-31T00:00:54;95706.13;;;17.82;100.00
39141;BME280;24875;48.436;10.298;2023-08-31T00:03:21;95705.63;;;17.85;100.00
39141;BME280;24875;48.436;10.298;2023-08-31T00:05:47;95706.13;;;17.71;100.00
39141;BME280;24875;48.436;10.298;2023-08-31T00:08:17;95711.38;;;18.05;100.00
39141;BME280;24875;48.436;10.298;2023-08-31T00:10:54;95720.44;;;18.04;100.00
39141;BME280;24875;48.436;10.298;2023-08-31T00:13:21;95707.84;;;17.54;100.00
39141;BME280;24875;48.436;10.298;2023-08-31T00:15:48;95717.22;;;17.79;100.00
39141;BME280;24875;48.436;10.298;2023-08-31T00:18:14;95725.81;;;17.70;100.00
39141;BME280;24875;48.436;10.298;2023-08-31T00:20:41;95722.44;;;17.40;100.00
39141;BME280;24875;48.436;10.298;2023-08-31T00:23:08;95733.22;;;17.33;100.00
39141;BME280;24875;48.436;10.298;2023-08-31T00:25:36;95734.97;;;17.51;100.00
39141;BME280;24875;48.436;10.298;2023-08-31T00:28:03;95732.31;;;17.51;100.00
39141;BME280;24875;48.436;10.298;2023-08-31T00:30:30;95730.50;;;17.22;100.00
39141;BME280;24875;48.436;10.298;2023-08-31T00:32:57;95733.13;;;17.10;100.00
39141;BME280;24875;48.436;10.298;2023-08-31T00:35:24;95742.78;;;17.23;100.00
39141;BME280;24875;48.436;10.298;2023-08-31T00:37:51;95748.28;;;17.39;100.00
39141;BME280;24875;48.436;10.298;2023-08-31T00:40:23;95748.09;;;17.23;100.00
39141;BME280;24875;48.436;10.298;2023-08-31T00:42:51;95736.47;;;17.70;100.00
39141;BME280;24875;48.436;10.298;2023-08-31T00:45:18;95735.66;;;17.58;100.00
39141;BME280;24875;48.436;10.298;2023-08-31T00:47:45;95732.88;;;17.41;100.00
39141;BME280;24875;48.436;10.298;2023-08-31T00:50:12;95731.47;;;17.27;100.00
39141;BME280;24875;48.436;10.298;2023-08-31T00:52:39;95743.19;;;17.38;100.00
39141;BME280;24875;48.436;10.298;2023-08-31T00:55:07;95747.03;;;17.65;100.00
39141;BME280;24875;48.436;10.298;2023-08-31T00:57:35;95754.31;;;17.69;100.00
39141;BME280;24875;48.436;10.298;2023-08-31T01:00:03;95750.94;;;17.96;100.00
39141;BME280;24875;48.436;10.298;2023-08-31T01:02:40;95755.56;;;18.24;100.00
39141;BME280;24875;48.436;10.298;2023-08-31T01:05:14;95750.56;;;18.16;100.00
39141;BME280;24875;48.436;10.298;2023-08-31T01:07:48;95750.56;;;18.16;100.00
39141;BME280;24875;48.436;10.298;2023-08-31T01:10:21;95758.69;;;17.98;100.00
39141;BME280;24875;48.436;10.298;2023-08-31T01:12:50;95754.75;;;17.89;100.00
39141;BME280;24875;48.436;10.298;2023-08-31T01:15:20;95770.88;;;17.94;100.00
39141;BME280;24875;48.436;10.298;2023-08-31T01:17:48;95769.00;;;17.83;100.00
39141;BME280;24875;48.436;10.298;2023-08-31T01:20:19;95763.69;;;17.94;100.00
39141;BME280;24875;48.436;10.298;2023-08-31T01:22:50;95772.28;;;17.73;100.00
39141;BME280;24875;48.436;10.298;2023-08-31T01:25:20;95771.25;;;17.86;100.00
39141;BME280;24875;48.436;10.298;2023-08-31T01:27:47;95760.69;;;17.57;100.00
39141;BME280;24875;48.436;10.298;2023-08-31T01:30:13;95754.09;;;17.59;100.00
39141;BME280;24875;48.436;10.298;2023-08-31T01:32:43;95755.44;;;18.07;100.00
39141;BME280;24875;48.436;10.298;2023-08-31T01:35:15;95751.03;;;18.13;100.00
39141;BME280;24875;48.436;10.298;2023-08-31T01:37:46;95755.25;;;17.63;100.00
39141;BME280;24875;48.436;10.298;2023-08-31T01:40:17;95755.38;;;17.79;100.00
39141;BME280;24875;48.436;10.298;2023-08-31T01:42:46;95753.63;;;17.85;100.00
39141;BME280;24875;48.436;10.298;2023-08-31T01:45:17;95754.78;;;17.66;100.00
39141;BME280;24875;48.436;10.298;2023-08-31T01:47:45;95762.41;;;17.74;100.00
39141;BME280;24875;48.436;10.298;2023-08-31T01:50:12;95757.56;;;17.71;100.00
39141;BME280;24875;48.436;10.298;2023-08-31T01:52:39;95751.31;;;17.77;100.00
39141;BME280;24875;48.436;10.298;2023-08-31T01:55:06;95747.56;;;17.89;100.00
39141;BME280;24875;48.436;10.298;2023-08-31T01:57:33;95750.72;;;17.75;100.00
39141;BME280;24875;48.436;10.298;2023-08-31T02:00:01;95760.56;;;17.86;100.00
39141;BME280;24875;48.436;10.298;2023-08-31T02:02:29;95755.47;;;17.62;100.00
39141;BME280;24875;48.436;10.298;2023-08-31T02:04:56;95767.94;;;17.38;100.00
39141;BME280;24875;48.436;10.298;2023-08-31T02:07:26;95769.13;;;17.54;100.00
39141;BME280;24875;48.436;10.298;2023-08-31T02:09:53;95772.16;;;17.91;100.00
39141;BME280;24875;48.436;10.298;2023-08-31T02:12:19;95772.94;;;17.58;100.00
39141;BME280;24875;48.436;10.298;2023-08-31T02:14:46;95768.31;;;17.53;100.00
39141;BME280;24875;48.436;10.298;2023-08-31T02:17:14;95771.81;;;17.76;100.00
39141;BME280;24875;48.436;10.298;2023-08-31T02:19:40;95770.63;;;17.38;100.00
39141;BME280;24875;48.436;10.298;2023-08-31T02:22:07;95773.66;;;17.12;100.00
39141;BME280;24875;48.436;10.298;2023-08-31T02:24:33;95766.66;;;17.29;100.00
39141;BME280;24875;48.436;10.298;2023-08-31T02:27:00;95776.09;;;18.23;100.00
39141;BME280;24875;48.436;10.298;2023-08-31T02:29:26;95779.28;;;18.36;100.00
39141;BME280;24875;48.436;10.298;2023-08-31T02:31:53;95781.19;;;17.79;100.00
39141;BME280;24875;48.436;10.298;2023-08-31T02:34:21;95780.50;;;17.83;100.00
39141;BME280;24875;48.436;10.298;2023-08-31T02:36:47;95783.25;;;17.31;100.00
39141;BME280;24875;48.436;10.298;2023-08-31T02:39:14;95785.78;;;17.26;100.00
39141;BME280;24875;48.436;10.298;2023-08-31T02:41:41;95799.47;;;17.41;100.00
39141;BME280;24875;48.436;10.298;2023-08-31T02:44:08;95806.75;;;17.05;100.00
39141;BME280;24875;48.436;10.298;2023-08-31T02:46:34;95803.75;;;17.13;100.00
39141;BME280;24875;48.436;10.298;2023-08-31T02:49:01;95803.84;;;17.07;100.00
39141;BME280;24875;48.436;10.298;2023-08-31T02:51:29;95789.28;;;17.09;100.00
39141;BME280;24875;48.436;10.298;2023-08-31T02:53:55;95794.94;;;16.72;100.00
39141;BME280;24875;48.436;10.298;2023-08-31T02:56:22;95794.00;;;16.66;100.00
39141;BME280;24875;48.436;10.298;2023-08-31T02:58:48;95804.94;;;16.58;100.00
39141;BME280;24875;48.436;10.298;2023-08-31T03:01:15;95809.31;;;16.53;100.00
39141;BME280;24875;48.436;10.298;2023-08-31T03:03:42;95810.47;;;16.57;100.00
39141;BME280;24875;48.436;10.298;2023-08-31T03:06:10;95804.19;;;16.99;100.00
39141;BME280;24875;48.436;10.298;2023-08-31T03:08:38;95806.91;;;17.21;100.00
39141;BME280;24875;48.436;10.298;2023-08-31T03:11:05;95809.38;;;16.94;100.00
39141;BME280;24875;48.436;10.298;2023-08-31T03:13:32;95807.44;;;17.01;100.00
39141;BME280;24875;48.436;10.298;2023-08-31T03:15:59;95815.72;;;16.93;100.00
39141;BME280;24875;48.436;10.298;2023-08-31T03:18:25;95810.06;;;16.89;100.00
39141;BME280;24875;48.436;10.298;2023-08-31T03:20:53;95814.41;;;16.84;100.00
39141;BME280;24875;48.436;10.298;2023-08-31T03:23:20;95817.97;;;16.96;100.00
39141;BME280;24875;48.436;10.298;2023-08-31T03:25:48;95811.50;;;17.03;100.00
39141;BME280;24875;48.436;10.298;2023-08-31T03:28:14;95802.09;;;16.89;100.00
39141;BME280;24875;48.436;10.298;2023-08-31T03:30:41;95805.44;;;16.67;100.00
39141;BME280;24875;48.436;10.298;2023-08-31T03:33:10;95799.03;;;17.15;100.00
39141;BME280;24875;48.436;10.298;2023-08-31T03:35:36;95813.72;;;17.06;100.00
39141;BME280;24875;48.436;10.298;2023-08-31T03:38:03;95822.25;;;16.79;100.00
39141;BME280;24875;48.436;10.298;2023-08-31T03:40:31;95829.06;;;16.75;100.00
39141;BME280;24875;48.436;10.298;2023-08-31T03:42:59;95830.13;;;16.74;100.00
39141;BME280;24875;48.436;10.298;2023-08-31T03:45:26;95832.28;;;16.48;100.00
39141;BME280;24875;48.436;10.298;2023-08-31T03:47:53;95829.78;;;16.52;100.00
39141;BME280;24875;48.436;10.298;2023-08-31T03:50:20;95822.75;;;16.58;100.00
39141;BME280;24875;48.436;10.298;2023-08-31T03:52:46;95835.25;;;16.40;100.00
39141;BME280;24875;48.436;10.298;2023-08-31T03:55:13;95827.84;;;16.42;100.00
39141;BME280;24875;48.436;10.298;2023-08-31T03:57:39;95828.16;;;16.51;100.00
39141;BME280;24875;48.436;10.298;2023-08-31T04:00:08;95832.50;;;16.64;100.00
39141;BME280;24875;48.436;10.298;2023-08-31T04:02:37;95831.50;;;16.47;100.00
39141;BME280;24875;48.436;10.298;2023-08-31T04:05:05;95833.13;;;16.77;100.00
39141;BME280;24875;48.436;10.298;2023-08-31T04:07:32;95826.59;;;16.91;100.00
39141;BME280;24875;48.436;10.298;2023-08-31T04:09:59;95838.38;;;16.84;100.00
39141;BME280;24875;48.436;10.298;2023-08-31T04:12:25;95831.50;;;16.94;100.00
39141;BME280;24875;48.436;10.298;2023-08-31T04:14:54;95846.59;;;16.82;100.00
39141;BME280;24875;48.436;10.298;2023-08-31T04:17:22;95842.28;;;17.28;100.00
39141;BME280;24875;48.436;10.298;2023-08-31T04:19:50;95849.66;;;16.68;100.00
39141;BME280;24875;48.436;10.298;2023-08-31T04:22:16;95865.69;;;16.61;100.00
39141;BME280;24875;48.436;10.298;2023-08-31T04:24:43;95858.78;;;16.72;100.00
39141;BME280;24875;48.436;10.298;2023-08-31T04:27:09;95868.03;;;16.69;100.00
39141;BME280;24875;48.436;10.298;2023-08-31T04:29:36;95865.50;;;17.51;100.00
39141;BME280;24875;48.436;10.298;2023-08-31T04:32:03;95861.28;;;17.95;100.00
39141;BME280;24875;48.436;10.298;2023-08-31T04:34:31;95859.22;;;18.32;100.00
39141;BME280;24875;48.436;10.298;2023-08-31T04:36:58;95869.16;;;18.02;100.00
39141;BME280;24875;48.436;10.298;2023-08-31T04:39:24;95870.06;;;17.84;100.00
39141;BME280;24875;48.436;10.298;2023-08-31T04:41:52;95877.03;;;17.85;100.00
39141;BME280;24875;48.436;10.298;2023-08-31T04:44:18;95873.94;;;16.89;100.00
39141;BME280;24875;48.436;10.298;2023-08-31T04:46:45;95866.63;;;16.85;100.00
39141;BME280;24875;48.436;10.298;2023-08-31T04:49:11;95873.53;;;17.04;100.00
39141;BME280;24875;48.436;10.298;2023-08-31T04:51:39;95881.34;;;17.16;100.00
39141;BME280;24875;48.436;10.298;2023-08-31T04:54:07;95887.13;;;17.13;100.00
39141;BME280;24875;48.436;10.298;2023-08-31T04:56:34;95883.91;;;16.94;100.00
39141;BME280;24875;48.436;10.298;2023-08-31T04:59:00;95888.50;;;16.87;100.00
39141;BME280;24875;48.436;10.298;2023-08-31T05:01:28;95888.75;;;16.85;100.00
39141;BME280;24875;48.436;10.298;2023-08-31T05:03:54;95890.50;;;17.20;100.00
39141;BME280;24875;48.436;10.298;2023-08-31T05:06:21;95885.47;;;17.30;100.00
39141;BME280;24875;48.436;10.298;2023-08-31T05:08:49;95892.38;;;17.49;100.00
39141;BME280;24875;48.436;10.298;2023-08-31T05:11:15;95886.97;;;17.26;100.00
39141;BME280;24875;48.436;10.298;2023-08-31T05:13:42;95899.06;;;16.93;100.00
39141;BME280;24875;48.436;10.298;2023-08-31T05:16:09;95889.19;;;17.29;100.00
39141;BME280;24875;48.436;10.298;2023-08-31T05:18:36;95881.78;;;17.31;100.00
39141;BME280;24875;48.436;10.298;2023-08-31T05:21:03;95874.50;;;17.38;100.00
39141;BME280;24875;48.436;10.298;2023-08-31T05:23:29;95878.22;;;17.19;100.00
39141;BME280;24875;48.436;10.298;2023-08-31T05:25:57;95896.97;;;17.42;100.00
39141;BME280;24875;48.436;10.298;2023-08-31T05:28:26;95903.00;;;16.91;100.00
39141;BME280;24875;48.436;10.298;2023-08-31T05:30:55;95897.09;;;17.47;100.00
39141;BME280;24875;48.436;10.298;2023-08-31T05:33:22;95899.84;;;17.11;100.00
39141;BME280;24875;48.436;10.298;2023-08-31T05:35:50;95897.72;;;17.49;100.00
39141;BME280;24875;48.436;10.298;2023-08-31T05:38:17;95906.53;;;17.61;100.00
39141;BME280;24875;48.436;10.298;2023-08-31T05:40:43;95907.00;;;17.58;100.00
39141;BME280;24875;48.436;10.298;2023-08-31T05:43:12;95904.81;;;17.78;100.00
39141;BME280;24875;48.436;10.298;2023-08-31T05:45:39;95906.34;;;17.15;100.00
39141;BME280;24875;48.436;10.298;2023-08-31T05:48:07;95909.00;;;17.33;100.00
39141;BME280;24875;48.436;10.298;2023-08-31T05:50:34;95907.97;;;17.16;100.00
39141;BME280;24875;48.436;10.298;2023-08-31T05:53:02;95908.78;;;17.46;100.00
39141;BME280;24875;48.436;10.298;2023-08-31T05:55:28;95905.47;;;17.51;100.00
39141;BME280;24875;48.436;10.298;2023-08-31T05:57:55;95914.97;;;17.47;100.00
39141;BME280;24875;48.436;10.298;2023-08-31T06:00:23;95910.16;;;17.19;100.00
39141;BME280;24875;48.436;10.298;2023-08-31T06:02:49;95916.22;;;17.44;100.00
39141;BME280;24875;48.436;10.298;2023-08-31T06:05:16;95910.78;;;17.21;100.00
39141;BME280;24875;48.436;10.298;2023-08-31T06:07:42;95909.13;;;17.20;100.00
39141;BME280;24875;48.436;10.298;2023-08-31T06:10:09;95900.06;;;17.28;100.00
39141;BME280;24875;48.436;10.298;2023-08-31T06:12:36;95911.56;;;17.22;100.00
39141;BME280;24875;48.436;10.298;2023-08-31T06:15:03;95903.13;;;17.43;100.00
39141;BME280;24875;48.436;10.298;2023-08-31T06:17:31;95909.22;;;17.72;100.00
39141;BME280;24875;48.436;10.298;2023-08-31T06:19:58;95923.22;;;17.27;100.00
39141;BME280;24875;48.436;10.298;2023-08-31T06:22:24;95931.69;;;17.36;100.00
39141;BME280;24875;48.436;10.298;2023-08-31T06:24:51;95942.22;;;17.31;100.00
39141;BME280;24875;48.436;10.298;2023-08-31T06:27:18;95957.50;;;17.53;100.00
39141;BME280;24875;48.436;10.298;2023-08-31T06:29:45;95960.81;;;17.49;100.00
39141;BME280;24875;48.436;10.298;2023-08-31T06:32:11;95963.97;;;17.28;100.00
39141;BME280;24875;48.436;10.298;2023-08-31T06:34:39;95962.34;;;17.85;100.00
39141;BME280;24875;48.436;10.298;2023-08-31T06:37:06;95960.63;;;17.50;100.00
39141;BME280;24875;48.436;10.298;2023-08-31T06:39:32;95954.81;;;17.53;100.00
39141;BME280;24875;48.436;10.298;2023-08-31T06:41:59;95955.38;;;17.84;100.00
39141;BME280;24875;48.436;10.298;2023-08-31T06:44:25;95962.91;;;17.76;100.00
39141;BME280;24875;48.436;10.298;2023-08-31T06:46:52;95957.41;;;18.00;100.00
39141;BME280;24875;48.436;10.298;2023-08-31T06:49:19;95962.84;;;18.05;100.00
39141;BME280;24875;48.436;10.298;2023-08-31T06:51:47;95959.41;;;18.28;100.00
39141;BME280;24875;48.436;10.298;2023-08-31T06:54:13;95963.94;;;17.75;100.00
39141;BME280;24875;48.436;10.298;2023-08-31T06:56:40;95964.94;;;18.15;100.00
39141;BME280;24875;48.436;10.298;2023-08-31T06:59:07;95967.31;;;18.80;100.00
39141;BME280;24875;48.436;10.298;2023-08-31T07:01:34;95969.25;;;19.30;100.00
39141;BME280;24875;48.436;10.298;2023-08-31T07:04:01;95968.72;;;19.44;100.00
39141;BME280;24875;48.436;10.298;2023-08-31T07:06:29;95972.03;;;19.35;100.00
39141;BME280;24875;48.436;10.298;2023-08-31T07:08:57;95982.50;;;19.64;100.00
39141;BME280;24875;48.436;10.298;2023-08-31T07:11:23;95984.59;;;18.54;100.00
39141;BME280;24875;48.436;10.298;2023-08-31T07:13:51;95989.81;;;18.84;100.00
39141;BME280;24875;48.436;10.298;2023-08-31T07:16:18;95989.34;;;19.32;100.00
39141;BME280;24875;48.436;10.298;2023-08-31T07:18:44;95989.72;;;18.44;100.00
39141;BME280;24875;48.436;10.298;2023-08-31T07:21:11;95994.97;;;17.99;100.00
39141;BME280;24875;48.436;10.298;2023-08-31T07:23:37;95997.28;;;17.66;100.00
39141;BME280;24875;48.436;10.298;2023-08-31T07:26:05;95997.03;;;17.97;100.00
39141;BME280;24875;48.436;10.298;2023-08-31T07:28:32;95996.91;;;18.90;100.00
39141;BME280;24875;48.436;10.298;2023-08-31T07:31:02;95997.91;;;19.73;100.00
39141;BME280;24875;48.436;10.298;2023-08-31T07:33:30;96005.50;;;19.26;100.00
39141;BME280;24875;48.436;10.298;2023-08-31T07:35:57;96014.59;;;19.53;100.00
39141;BME280;24875;48.436;10.298;2023-08-31T07:38:24;96018.88;;;19.54;100.00
39141;BME280;24875;48.436;10.298;2023-08-31T07:40:51;96018.03;;;19.14;100.00
39141;BME280;24875;48.436;10.298;2023-08-31T07:43:18;96021.44;;;19.09;100.00
39141;BME280;24875;48.436;10.298;2023-08-31T07:45:45;96017.44;;;18.32;100.00
39141;BME280;24875;48.436;10.298;2023-08-31T07:48:12;96023.69;;;18.26;100.00
39141;BME280;24875;48.436;10.298;2023-08-31T07:50:40;96015.78;;;18.20;100.00
39141;BME280;24875;48.436;10.298;2023-08-31T07:53:07;96023.25;;;18.00;100.00
39141;BME280;24875;48.436;10.298;2023-08-31T07:55:33;96028.91;;;19.47;100.00
39141;BME280;24875;48.436;10.298;2023-08-31T07:58:01;96019.03;;;19.36;100.00
39141;BME280;24875;48.436;10.298;2023-08-31T08:00:29;96032.06;;;19.44;100.00
39141;BME280;24875;48.436;10.298;2023-08-31T08:02:55;96026.16;;;19.69;100.00
39141;BME280;24875;48.436;10.298;2023-08-31T08:05:22;96034.56;;;19.11;100.00
39141;BME280;24875;48.436;10.298;2023-08-31T08:07:48;96036.16;;;18.55;100.00
39141;BME280;24875;48.436;10.298;2023-08-31T08:10:15;96044.78;;;18.28;100.00
39141;BME280;24875;48.436;10.298;2023-08-31T08:12:42;96047.75;;;18.72;100.00
39141;BME280;24875;48.436;10.298;2023-08-31T08:15:10;96059.28;;;18.20;100.00
39141;BME280;24875;48.436;10.298;2023-08-31T08:17:38;96062.66;;;18.27;100.00
39141;BME280;24875;48.436;10.298;2023-08-31T08:20:06;96061.97;;;18.20;100.00
39141;BME280;24875;48.436;10.298;2023-08-31T08:22:34;96070.16;;;18.82;100.00
39141;BME280;24875;48.436;10.298;2023-08-31T08:25:01;96066.13;;;19.14;100.00
39141;BME280;24875;48.436;10.298;2023-08-31T08:27:28;96073.91;;;18.18;100.00
39141;BME280;24875;48.436;10.298;2023-08-31T08:29:54;96069.44;;;18.12;100.00
39141;BME280;24875;48.436;10.298;2023-08-31T08:32:21;96073.44;;;18.03;100.00
39141;BME280;24875;48.436;10.298;2023-08-31T08:34:49;96060.63;;;18.63;100.00
39141;BME280;24875;48.436;10.298;2023-08-31T08:37:16;96062.91;;;18.08;100.00
39141;BME280;24875;48.436;10.298;2023-08-31T08:39:43;96067.34;;;18.54;100.00
39141;BME280;24875;48.436;10.298;2023-08-31T08:42:10;96071.63;;;18.44;100.00
39141;BME280;24875;48.436;10.298;2023-08-31T08:44:37;96069.56;;;18.57;100.00
39141;BME280;24875;48.436;10.298;2023-08-31T08:47:05;96064.22;;;18.57;100.00
39141;BME280;24875;48.436;10.298;2023-08-31T08:49:33;96054.75;;;19.07;100.00
39141;BME280;24875;48.436;10.298;2023-08-31T08:52:03;96066.09;;;19.37;100.00
39141;BME280;24875;48.436;10.298;2023-08-31T08:54:30;96064.50;;;19.13;100.00
39141;BME280;24875;48.436;10.298;2023-08-31T08:56:56;96059.97;;;18.91;100.00
39141;BME280;24875;48.436;10.298;2023-08-31T08:59:23;96061.72;;;18.96;100.00
39141;BME280;24875;48.436;10.298;2023-08-31T09:01:50;96055.06;;;19.22;100.00
39141;BME280;24875;48.436;10.298;2023-08-31T09:04:16;96065.03;;;19.49;100.00
39141;BME280;24875;48.436;10.298;2023-08-31T09:06:43;96055.47;;;19.64;100.00
39141;BME280;24875;48.436;10.298;2023-08-31T09:09:11;96064.81;;;19.90;100.00
39141;BME280;24875;48.436;10.298;2023-08-31T09:11:37;96072.47;;;19.47;100.00
39141;BME280;24875;48.436;10.298;2023-08-31T09:14:14;96073.84;;;19.50;97.90
39141;BME280;24875;48.436;10.298;2023-08-31T09:16:44;96070.53;;;19.43;94.62
39141;BME280;24875;48.436;10.298;2023-08-31T09:19:18;96076.69;;;19.32;85.22
39141;BME280;24875;48.436;10.298;2023-08-31T09:21:46;96076.94;;;19.07;84.56
39141;BME280;24875;48.436;10.298;2023-08-31T09:24:14;96089.81;;;19.22;82.71
39141;BME280;24875;48.436;10.298;2023-08-31T09:26:44;96087.22;;;19.04;78.90
39141;BME280;24875;48.436;10.298;2023-08-31T09:29:11;96088.06;;;18.93;79.57
39141;BME280;24875;48.436;10.298;2023-08-31T09:31:41;96091.09;;;18.96;75.26
39141;BME280;24875;48.436;10.298;2023-08-31T09:34:08;96087.44;;;18.68;75.68
39141;BME280;24875;48.436;10.298;2023-08-31T09:36:36;96093.03;;;19.01;76.16
39141;BME280;24875;48.436;10.298;2023-08-31T09:39:03;96082.63;;;19.22;73.57
39141;BME280;24875;48.436;10.298;2023-08-31T09:41:31;96093.75;;;19.31;71.51
39141;BME280;24875;48.436;10.298;2023-08-31T09:44:14;96087.75;;;19.74;68.34
39141;BME280;24875;48.436;10.298;2023-08-31T09:46:41;96095.75;;;19.12;67.25
39141;BME280;24875;48.436;10.298;2023-08-31T09:49:08;96091.31;;;19.41;67.10
39141;BME280;24875;48.436;10.298;2023-08-31T09:51:37;96088.19;;;19.44;68.76
39141;BME280;24875;48.436;10.298;2023-08-31T09:54:07;96089.53;;;20.08;69.76
39141;BME280;24875;48.436;10.298;2023-08-31T09:56:35;96084.06;;;20.03;65.95
39141;BME280;24875;48.436;10.298;2023-08-31T09:59:03;96082.97;;;20.16;67.43
39141;BME280;24875;48.436;10.298;2023-08-31T10:01:30;96082.97;;;20.16;66.01
39141;BME280;24875;48.436;10.298;2023-08-31T10:03:59;96082.63;;;21.00;66.21
39141;BME280;24875;48.436;10.298;2023-08-31T10:06:27;96092.59;;;20.72;63.62
39141;BME280;24875;48.436;10.298;2023-08-31T10:08:54;96100.06;;;19.75;60.86
39141;BME280;24875;48.436;10.298;2023-08-31T10:11:21;96104.09;;;19.89;61.79
39141;BME280;24875;48.436;10.298;2023-08-31T10:13:49;96095.59;;;20.04;62.22
39141;BME280;24875;48.436;10.298;2023-08-31T10:16:16;96100.06;;;19.75;60.90
39141;BME280;24875;48.436;10.298;2023-08-31T10:18:44;96102.38;;;20.22;61.34
39141;BME280;24875;48.436;10.298;2023-08-31T10:21:12;96095.28;;;20.88;59.32
39141;BME280;24875;48.436;10.298;2023-08-31T10:23:44;96097.69;;;20.90;58.38
39141;BME280;24875;48.436;10.298;2023-08-31T10:26:11;96099.22;;;20.25;57.50
39141;BME280;24875;48.436;10.298;2023-08-31T10:28:42;96102.94;;;20.96;56.28
39141;BME280;24875;48.436;10.298;2023-08-31T10:31:14;96099.31;;;20.75;56.83
39141;BME280;24875;48.436;10.298;2023-08-31T10:33:42;96098.84;;;20.78;56.69
39141;BME280;24875;48.436;10.298;2023-08-31T10:36:11;96100.31;;;20.85;57.88
39141;BME280;24875;48.436;10.298;2023-08-31T10:38:38;96095.78;;;20.85;56.11
39141;BME280;24875;48.436;10.298;2023-08-31T10:41:18;96091.50;;;21.55;56.16
39141;BME280;24875;48.436;10.298;2023-08-31T10:43:47;96086.00;;;21.12;55.42
39141;BME280;24875;48.436;10.298;2023-08-31T10:48:59;96086.50;;;21.09;55.16
39141;BME280;24875;48.436;10.298;2023-08-31T10:51:28;96091.09;;;21.30;57.19
39141;BME280;24875;48.436;10.298;2023-08-31T10:54:05;96094.09;;;21.93;55.89
39141;BME280;24875;48.436;10.298;2023-08-31T10:56:32;96094.81;;;20.91;54.89
39141;BME280;24875;48.436;10.298;2023-08-31T10:59:00;96094.94;;;21.01;55.57
39141;BME280;24875;48.436;10.298;2023-08-31T11:01:54;96088.28;;;22.01;54.26
39141;BME280;24875;48.436;10.298;2023-08-31T11:04:22;96076.53;;;21.59;52.81
39141;BME280;24875;48.436;10.298;2023-08-31T11:09:31;96079.75;;;22.04;52.78
39141;BME280;24875;48.436;10.298;2023-08-31T11:11:58;96083.06;;;21.30;52.94
39141;BME280;24875;48.436;10.298;2023-08-31T11:14:25;96091.19;;;21.35;53.59
39141;BME280;24875;48.436;10.298;2023-08-31T11:16:51;96082.75;;;21.10;51.08
39141;BME280;24875;48.436;10.298;2023-08-31T11:19:19;96085.72;;;22.10;51.48
39141;BME280;24875;48.436;10.298;2023-08-31T11:21:46;96081.22;;;21.90;53.25
39141;BME280;24875;48.436;10.298;2023-08-31T11:24:13;96085.63;;;22.01;51.78
39141;BME280;24875;48.436;10.298;2023-08-31T11:26:39;96079.50;;;22.26;52.64
39141;BME280;24875;48.436;10.298;2023-08-31T11:29:06;96075.13;;;22.20;52.71
39141;BME280;24875;48.436;10.298;2023-08-31T11:31:38;96073.47;;;22.72;51.23
39141;BME280;24875;48.436;10.298;2023-08-31T11:34:05;96075.97;;;22.47;50.54
39141;BME280;24875;48.436;10.298;2023-08-31T11:36:33;96065.25;;;22.83;49.87
39141;BME280;24875;48.436;10.298;2023-08-31T11:39:00;96071.84;;;22.13;51.94
39141;BME280;24875;48.436;10.298;2023-08-31T11:41:30;96072.09;;;22.38;50.23
39141;BME280;24875;48.436;10.298;2023-08-31T11:43:57;96062.44;;;22.16;50.48
39141;BME280;24875;48.436;10.298;2023-08-31T11:46:24;96070.47;;;22.37;50.21
39141;BME280;24875;48.436;10.298;2023-08-31T11:48:51;96070.75;;;22.98;49.78
39141;BME280;24875;48.436;10.298;2023-08-31T11:51:17;96068.53;;;23.22;50.43
39141;BME280;24875;48.436;10.298;2023-08-31T11:53:46;96078.72;;;23.15;51.12
39141;BME280;24875;48.436;10.298;2023-08-31T11:56:13;96083.22;;;22.78;51.09
39141;BME280;24875;48.436;10.298;2023-08-31T11:58:40;96075.78;;;22.32;50.56
39141;BME280;24875;48.436;10.298;2023-08-31T12:01:08;96077.75;;;22.15;52.36
39141;BME280;24875;48.436;10.298;2023-08-31T12:03:42;96085.59;;;23.01;49.97
39141;BME280;24875;48.436;10.298;2023-08-31T12:06:10;96078.31;;;22.17;49.74
39141;BME280;24875;48.436;10.298;2023-08-31T12:08:37;96084.94;;;22.31;51.66
39141;BME280;24875;48.436;10.298;2023-08-31T12:11:07;96080.69;;;22.67;51.55
39141;BME280;24875;48.436;10.298;2023-08-31T12:13:33;96088.22;;;22.38;51.25
39141;BME280;24875;48.436;10.298;2023-08-31T12:16:00;96077.88;;;21.83;51.18
39141;BME280;24875;48.436;10.298;2023-08-31T12:18:29;96080.88;;;22.07;51.64
39141;BME280;24875;48.436;10.298;2023-08-31T12:20:56;96075.63;;;22.17;51.77
39141;BME280;24875;48.436;10.298;2023-08-31T12:23:24;96083.25;;;22.52;51.19
39141;BME280;24875;48.436;10.298;2023-08-31T12:25:52;96085.06;;;22.25;51.09
39141;BME280;24875;48.436;10.298;2023-08-31T12:28:21;96091.47;;;22.40;51.20
39141;BME280;24875;48.436;10.298;2023-08-31T12:30:49;96085.34;;;22.23;50.88
39141;BME280;24875;48.436;10.298;2023-08-31T12:33:15;96086.28;;;22.34;51.51
39141;BME280;24875;48.436;10.298;2023-08-31T12:35:42;96084.78;;;22.21;52.67
39141;BME280;24875;48.436;10.298;2023-08-31T12:38:09;96078.59;;;22.42;52.78
39141;BME280;24875;48.436;10.298;2023-08-31T12:40:35;96082.91;;;22.22;51.16
39141;BME280;24875;48.436;10.298;2023-08-31T12:43:04;96082.34;;;22.41;51.60
39141;BME280;24875;48.436;10.298;2023-08-31T12:45:32;96086.09;;;22.98;50.26
39141;BME280;24875;48.436;10.298;2023-08-31T12:47:58;96087.88;;;22.87;48.85
39141;BME280;24875;48.436;10.298;2023-08-31T12:50:25;96088.63;;;23.09;50.50